sensor_id;sensor_type;location;lat;lon;timestamp;P1;durP1;ratioP1;P2;durP2;ratioP2
17441;SDS011;8838;50.144;8.176;2022-07-29T00:01:07;10.35;;;4.10;;
17441;SDS011;8838;50.144;8.176;2022-07-29T00:03:34;12.57;;;4.72;;
17441;SDS011;8838;50.144;8.176;2022-07-29T00:06:03;12.48;;;4.80;;
17441;SDS011;8838;50.144;8.176;2022-07-29T00:08:29;7.55;;;4.35;;
17441;SDS011;8838;50.144;8.176;2022-07-29T00:10:56;9.82;;;4.57;;
17441;SDS011;8838;50.144;8.176;2022-07-29T00:13:23;10.57;;;4.32;;
17441;SDS011;8838;50.144;8.176;2022-07-29T00:15:50;10.65;;;4.18;;
17441;SDS011;8838;50.144;8.176;2022-07-29T00:18:17;8.20;;;4.10;;
17441;SDS011;8838;50.144;8.176;2022-07-29T00:20:44;6.75;;;3.75;;
17441;SDS011;8838;50.144;8.176;2022-07-29T00:23:12;9.80;;;3.70;;
17441;SDS011;8838;50.144;8.176;2022-07-29T00:25:39;8.38;;;3.50;;
17441;SDS011;8838;50.144;8.176;2022-07-29T00:28:05;6.95;;;3.30;;
17441;SDS011;8838;50.144;8.176;2022-07-29T00:30:32;7.72;;;3.38;;
17441;SDS011;8838;50.144;8.176;2022-07-29T00:32:59;7.97;;;4.00;;
17441;SDS011;8838;50.144;8.176;2022-07-29T00:35:26;7.97;;;4.05;;
17441;SDS011;8838;50.144;8.176;2022-07-29T00:38:11;7.03;;;4.15;;
17441;SDS011;8838;50.144;8.176;2022-07-29T00:40:39;8.63;;;4.00;;
17441;SDS011;8838;50.144;8.176;2022-07-29T00:43:06;5.97;;;3.78;;
17441;SDS011;8838;50.144;8.176;2022-07-29T00:45:34;6.88;;;3.80;;
17441;SDS011;8838;50.144;8.176;2022-07-29T00:48:02;7.18;;;4.05;;
17441;SDS011;8838;50.144;8.176;2022-07-29T00:50:29;6.22;;;3.53;;
17441;SDS011;8838;50.144;8.176;2022-07-29T00:52:57;5.70;;;3.78;;
17441;SDS011;8838;50.144;8.176;2022-07-29T00:55:26;6.65;;;3.75;;
17441;SDS011;8838;50.144;8.176;2022-07-29T00:57:55;6.57;;;3.75;;
17441;SDS011;8838;50.144;8.176;2022-07-29T01:00:24;7.30;;;3.58;;
17441;SDS011;8838;50.144;8.176;2022-07-29T01:02:52;7.45;;;3.78;;
17441;SDS011;8838;50.144;8.176;2022-07-29T01:05:20;5.47;;;3.58;;
17441;SDS011;8838;50.144;8.176;2022-07-29T01:07:51;5.68;;;3.88;;
17441;SDS011;8838;50.144;8.176;2022-07-29T01:10:19;5.78;;;3.78;;
17441;SDS011;8838;50.144;8.176;2022-07-29T01:12:49;5.60;;;3.80;;
17441;SDS011;8838;50.144;8.176;2022-07-29T01:15:18;7.90;;;4.25;;
17441;SDS011;8838;50.144;8.176;2022-07-29T01:17:46;7.22;;;4.32;;
17441;SDS011;8838;50.144;8.176;2022-07-29T01:20:20;7.00;;;3.63;;
17441;SDS011;8838;50.144;8.176;2022-07-29T01:23:03;5.72;;;4.03;;
17441;SDS011;8838;50.144;8.176;2022-07-29T01:28:58;7.15;;;3.95;;
17441;SDS011;8838;50.144;8.176;2022-07-29T01:31:30;7.25;;;4.28;;
17441;SDS011;8838;50.144;8.176;2022-07-29T01:34:02;9.35;;;4.47;;
17441;SDS011;8838;50.144;8.176;2022-07-29T01:36:34;5.80;;;4.18;;
17441;SDS011;8838;50.144;8.176;2022-07-29T01:39:05;5.40;;;4.07;;
17441;SDS011;8838;50.144;8.176;2022-07-29T01:41:36;7.65;;;3.83;;
17441;SDS011;8838;50.144;8.176;2022-07-29T01:44:13;6.38;;;4.03;;
17441;SDS011;8838;50.144;8.176;2022-07-29T01:46:46;8.52;;;4.80;;
17441;SDS011;8838;50.144;8.176;2022-07-29T01:49:17;8.75;;;5.07;;
17441;SDS011;8838;50.144;8.176;2022-07-29T01:51:48;6.07;;;4.47;;
17441;SDS011;8838;50.144;8.176;2022-07-29T01:54:18;5.80;;;3.97;;
17441;SDS011;8838;50.144;8.176;2022-07-29T01:56:51;5.50;;;3.80;;
17441;SDS011;8838;50.144;8.176;2022-07-29T01:59:21;8.85;;;4.45;;
17441;SDS011;8838;50.144;8.176;2022-07-29T02:01:49;5.97;;;4.63;;
17441;SDS011;8838;50.144;8.176;2022-07-29T02:04:19;5.28;;;4.35;;
17441;SDS011;8838;50.144;8.176;2022-07-29T02:06:47;7.75;;;4.03;;
17441;SDS011;8838;50.144;8.176;2022-07-29T02:09:16;5.93;;;4.93;;
17441;SDS011;8838;50.144;8.176;2022-07-29T02:11:47;7.80;;;4.85;;
17441;SDS011;8838;50.144;8.176;2022-07-29T02:14:17;7.68;;;4.65;;
17441;SDS011;8838;50.144;8.176;2022-07-29T02:16:47;8.70;;;4.55;;
17441;SDS011;8838;50.144;8.176;2022-07-29T02:19:21;7.15;;;4.70;;
17441;SDS011;8838;50.144;8.176;2022-07-29T02:21:50;8.63;;;4.80;;
17441;SDS011;8838;50.144;8.176;2022-07-29T02:24:19;6.75;;;4.60;;
17441;SDS011;8838;50.144;8.176;2022-07-29T02:26:47;8.00;;;4.82;;
17441;SDS011;8838;50.144;8.176;2022-07-29T02:29:16;8.63;;;4.70;;
17441;SDS011;8838;50.144;8.176;2022-07-29T02:31:48;6.32;;;4.50;;
17441;SDS011;8838;50.144;8.176;2022-07-29T02:34:16;8.07;;;4.80;;
17441;SDS011;8838;50.144;8.176;2022-07-29T02:36:46;8.93;;;5.13;;
17441;SDS011;8838;50.144;8.176;2022-07-29T02:39:14;10.23;;;4.47;;
17441;SDS011;8838;50.144;8.176;2022-07-29T02:41:42;13.65;;;5.38;;
17441;SDS011;8838;50.144;8.176;2022-07-29T02:44:12;8.68;;;4.47;;
17441;SDS011;8838;50.144;8.176;2022-07-29T02:46:41;9.52;;;4.80;;
17441;SDS011;8838;50.144;8.176;2022-07-29T02:49:15;10.50;;;5.10;;
17441;SDS011;8838;50.144;8.176;2022-07-29T02:51:49;9.43;;;4.85;;
17441;SDS011;8838;50.144;8.176;2022-07-29T02:54:23;5.85;;;4.43;;
17441;SDS011;8838;50.144;8.176;2022-07-29T02:56:55;6.95;;;4.20;;
17441;SDS011;8838;50.144;8.176;2022-07-29T02:59:26;9.23;;;4.78;;
17441;SDS011;8838;50.144;8.176;2022-07-29T03:01:57;5.80;;;4.32;;
17441;SDS011;8838;50.144;8.176;2022-07-29T03:04:27;9.40;;;4.70;;
17441;SDS011;8838;50.144;8.176;2022-07-29T03:06:56;6.32;;;4.70;;
17441;SDS011;8838;50.144;8.176;2022-07-29T03:09:25;8.05;;;4.90;;
17441;SDS011;8838;50.144;8.176;2022-07-29T03:11:54;9.50;;;5.10;;
17441;SDS011;8838;50.144;8.176;2022-07-29T03:14:23;6.18;;;4.47;;
17441;SDS011;8838;50.144;8.176;2022-07-29T03:16:50;6.03;;;4.47;;
17441;SDS011;8838;50.144;8.176;2022-07-29T03:19:18;8.55;;;4.00;;
17441;SDS011;8838;50.144;8.176;2022-07-29T03:21:47;7.07;;;4.18;;
17441;SDS011;8838;50.144;8.176;2022-07-29T03:24:24;5.00;;;4.20;;
17441;SDS011;8838;50.144;8.176;2022-07-29T03:26:52;8.60;;;4.47;;
17441;SDS011;8838;50.144;8.176;2022-07-29T03:29:18;7.93;;;4.75;;
17441;SDS011;8838;50.144;8.176;2022-07-29T03:31:45;6.40;;;4.35;;
17441;SDS011;8838;50.144;8.176;2022-07-29T03:34:12;7.40;;;4.45;;
17441;SDS011;8838;50.144;8.176;2022-07-29T03:36:39;8.55;;;4.72;;
17441;SDS011;8838;50.144;8.176;2022-07-29T03:39:07;6.95;;;4.32;;
17441;SDS011;8838;50.144;8.176;2022-07-29T03:41:36;7.68;;;5.03;;
17441;SDS011;8838;50.144;8.176;2022-07-29T03:44:06;6.18;;;4.40;;
17441;SDS011;8838;50.144;8.176;2022-07-29T03:46:35;6.72;;;4.72;;
17441;SDS011;8838;50.144;8.176;2022-07-29T03:49:03;6.18;;;4.32;;
17441;SDS011;8838;50.144;8.176;2022-07-29T03:51:33;6.55;;;4.75;;
17441;SDS011;8838;50.144;8.176;2022-07-29T03:54:01;5.00;;;4.50;;
17441;SDS011;8838;50.144;8.176;2022-07-29T03:56:29;7.18;;;4.43;;
17441;SDS011;8838;50.144;8.176;2022-07-29T03:58:58;6.95;;;5.00;;
17441;SDS011;8838;50.144;8.176;2022-07-29T04:01:27;6.85;;;4.97;;
17441;SDS011;8838;50.144;8.176;2022-07-29T04:03:55;6.78;;;5.07;;
17441;SDS011;8838;50.144;8.176;2022-07-29T04:06:22;8.38;;;4.57;;
17441;SDS011;8838;50.144;8.176;2022-07-29T04:08:50;8.00;;;4.40;;
17441;SDS011;8838;50.144;8.176;2022-07-29T04:11:17;6.70;;;4.35;;
17441;SDS011;8838;50.144;8.176;2022-07-29T04:13:46;6.63;;;4.57;;
17441;SDS011;8838;50.144;8.176;2022-07-29T04:16:13;9.30;;;4.65;;
17441;SDS011;8838;50.144;8.176;2022-07-29T04:18:40;5.47;;;4.20;;
17441;SDS011;8838;50.144;8.176;2022-07-29T04:21:06;6.05;;;4.22;;
17441;SDS011;8838;50.144;8.176;2022-07-29T04:23:33;7.15;;;4.03;;
17441;SDS011;8838;50.144;8.176;2022-07-29T04:26:00;4.88;;;4.30;;
17441;SDS011;8838;50.144;8.176;2022-07-29T04:28:27;6.72;;;4.50;;
17441;SDS011;8838;50.144;8.176;2022-07-29T04:30:55;5.80;;;3.88;;
17441;SDS011;8838;50.144;8.176;2022-07-29T04:33:22;6.00;;;4.30;;
17441;SDS011;8838;50.144;8.176;2022-07-29T04:35:49;5.93;;;4.25;;
17441;SDS011;8838;50.144;8.176;2022-07-29T04:38:16;7.65;;;4.55;;
17441;SDS011;8838;50.144;8.176;2022-07-29T04:40:43;4.45;;;4.00;;
17441;SDS011;8838;50.144;8.176;2022-07-29T04:43:10;4.95;;;4.45;;
17441;SDS011;8838;50.144;8.176;2022-07-29T04:45:37;8.23;;;4.30;;
17441;SDS011;8838;50.144;8.176;2022-07-29T04:48:05;5.05;;;3.97;;
17441;SDS011;8838;50.144;8.176;2022-07-29T04:50:32;4.43;;;4.03;;
17441;SDS011;8838;50.144;8.176;2022-07-29T04:52:59;5.78;;;4.70;;
17441;SDS011;8838;50.144;8.176;2022-07-29T04:55:26;5.43;;;4.72;;
17441;SDS011;8838;50.144;8.176;2022-07-29T04:57:52;6.47;;;4.80;;
17441;SDS011;8838;50.144;8.176;2022-07-29T05:00:19;7.85;;;5.50;;
17441;SDS011;8838;50.144;8.176;2022-07-29T05:02:48;5.55;;;4.97;;
17441;SDS011;8838;50.144;8.176;2022-07-29T05:05:16;7.18;;;4.93;;
17441;SDS011;8838;50.144;8.176;2022-07-29T05:07:43;11.63;;;5.60;;
17441;SDS011;8838;50.144;8.176;2022-07-29T05:10:10;8.85;;;5.47;;
17441;SDS011;8838;50.144;8.176;2022-07-29T05:12:37;6.95;;;5.38;;
17441;SDS011;8838;50.144;8.176;2022-07-29T05:15:05;8.27;;;5.65;;
17441;SDS011;8838;50.144;8.176;2022-07-29T05:17:32;7.47;;;5.50;;
17441;SDS011;8838;50.144;8.176;2022-07-29T05:19:59;9.15;;;5.30;;
17441;SDS011;8838;50.144;8.176;2022-07-29T05:22:27;10.10;;;5.80;;
17441;SDS011;8838;50.144;8.176;2022-07-29T05:24:54;6.72;;;5.07;;
17441;SDS011;8838;50.144;8.176;2022-07-29T05:27:21;7.45;;;5.13;;
17441;SDS011;8838;50.144;8.176;2022-07-29T05:29:48;7.40;;;5.43;;
17441;SDS011;8838;50.144;8.176;2022-07-29T05:32:15;9.23;;;5.30;;
17441;SDS011;8838;50.144;8.176;2022-07-29T05:34:42;5.97;;;5.18;;
17441;SDS011;8838;50.144;8.176;2022-07-29T05:37:08;8.13;;;5.50;;
17441;SDS011;8838;50.144;8.176;2022-07-29T05:39:37;6.78;;;4.75;;
17441;SDS011;8838;50.144;8.176;2022-07-29T05:42:07;8.38;;;5.38;;
17441;SDS011;8838;50.144;8.176;2022-07-29T05:44:35;6.25;;;4.97;;
17441;SDS011;8838;50.144;8.176;2022-07-29T05:47:03;6.70;;;5.25;;
17441;SDS011;8838;50.144;8.176;2022-07-29T05:49:29;9.35;;;5.82;;
17441;SDS011;8838;50.144;8.176;2022-07-29T05:51:56;7.05;;;5.28;;
17441;SDS011;8838;50.144;8.176;2022-07-29T05:54:23;5.65;;;5.10;;
17441;SDS011;8838;50.144;8.176;2022-07-29T05:56:52;7.88;;;5.63;;
17441;SDS011;8838;50.144;8.176;2022-07-29T05:59:18;7.80;;;5.20;;
17441;SDS011;8838;50.144;8.176;2022-07-29T06:01:45;6.55;;;5.65;;
17441;SDS011;8838;50.144;8.176;2022-07-29T06:04:12;6.85;;;5.60;;
17441;SDS011;8838;50.144;8.176;2022-07-29T06:06:39;11.98;;;5.43;;
17441;SDS011;8838;50.144;8.176;2022-07-29T06:09:06;5.65;;;5.00;;
17441;SDS011;8838;50.144;8.176;2022-07-29T06:11:33;6.45;;;4.40;;
17441;SDS011;8838;50.144;8.176;2022-07-29T06:14:02;8.25;;;5.32;;
17441;SDS011;8838;50.144;8.176;2022-07-29T06:16:28;8.00;;;5.00;;
17441;SDS011;8838;50.144;8.176;2022-07-29T06:18:55;9.82;;;5.00;;
17441;SDS011;8838;50.144;8.176;2022-07-29T06:21:22;7.13;;;4.55;;
17441;SDS011;8838;50.144;8.176;2022-07-29T06:23:49;9.27;;;5.18;;
17441;SDS011;8838;50.144;8.176;2022-07-29T06:26:16;10.60;;;5.20;;
17441;SDS011;8838;50.144;8.176;2022-07-29T06:28:43;5.90;;;4.78;;
17441;SDS011;8838;50.144;8.176;2022-07-29T06:31:11;7.28;;;4.70;;
17441;SDS011;8838;50.144;8.176;2022-07-29T06:33:38;8.60;;;4.65;;
17441;SDS011;8838;50.144;8.176;2022-07-29T06:36:05;5.10;;;4.30;;
17441;SDS011;8838;50.144;8.176;2022-07-29T06:38:32;6.80;;;4.30;;
17441;SDS011;8838;50.144;8.176;2022-07-29T06:40:59;9.32;;;4.32;;
17441;SDS011;8838;50.144;8.176;2022-07-29T06:43:27;8.35;;;4.20;;
17441;SDS011;8838;50.144;8.176;2022-07-29T06:45:57;6.55;;;3.88;;
17441;SDS011;8838;50.144;8.176;2022-07-29T06:48:26;7.18;;;3.85;;
17441;SDS011;8838;50.144;8.176;2022-07-29T06:50:54;7.45;;;4.05;;
17441;SDS011;8838;50.144;8.176;2022-07-29T06:53:20;7.10;;;3.85;;
17441;SDS011;8838;50.144;8.176;2022-07-29T06:55:47;10.65;;;4.43;;
17441;SDS011;8838;50.144;8.176;2022-07-29T06:58:14;6.20;;;3.75;;
17441;SDS011;8838;50.144;8.176;2022-07-29T07:00:43;5.78;;;4.07;;
17441;SDS011;8838;50.144;8.176;2022-07-29T07:03:10;12.07;;;4.15;;
17441;SDS011;8838;50.144;8.176;2022-07-29T07:05:39;5.85;;;3.63;;
17441;SDS011;8838;50.144;8.176;2022-07-29T07:08:06;4.65;;;3.15;;
17441;SDS011;8838;50.144;8.176;2022-07-29T07:10:33;7.15;;;3.13;;
17441;SDS011;8838;50.144;8.176;2022-07-29T07:13:00;4.97;;;2.90;;
17441;SDS011;8838;50.144;8.176;2022-07-29T07:15:27;6.32;;;2.95;;
17441;SDS011;8838;50.144;8.176;2022-07-29T07:17:55;7.82;;;2.92;;
17441;SDS011;8838;50.144;8.176;2022-07-29T07:20:22;4.93;;;2.92;;
17441;SDS011;8838;50.144;8.176;2022-07-29T07:22:51;5.78;;;2.95;;
17441;SDS011;8838;50.144;8.176;2022-07-29T07:25:17;9.20;;;2.92;;
17441;SDS011;8838;50.144;8.176;2022-07-29T07:27:44;5.10;;;2.90;;
17441;SDS011;8838;50.144;8.176;2022-07-29T07:30:12;5.93;;;2.53;;
17441;SDS011;8838;50.144;8.176;2022-07-29T07:32:39;7.13;;;2.90;;
17441;SDS011;8838;50.144;8.176;2022-07-29T07:35:06;13.05;;;3.15;;
17441;SDS011;8838;50.144;8.176;2022-07-29T07:37:34;5.05;;;2.83;;
17441;SDS011;8838;50.144;8.176;2022-07-29T07:40:03;7.13;;;2.60;;
17441;SDS011;8838;50.144;8.176;2022-07-29T07:42:30;7.72;;;2.80;;
17441;SDS011;8838;50.144;8.176;2022-07-29T07:44:57;6.95;;;2.70;;
17441;SDS011;8838;50.144;8.176;2022-07-29T07:47:24;5.55;;;2.53;;
17441;SDS011;8838;50.144;8.176;2022-07-29T07:49:52;13.43;;;3.28;;
17441;SDS011;8838;50.144;8.176;2022-07-29T07:52:20;6.07;;;2.70;;
17441;SDS011;8838;50.144;8.176;2022-07-29T07:54:47;6.47;;;2.33;;
17441;SDS011;8838;50.144;8.176;2022-07-29T07:57:16;2.88;;;2.25;;
17441;SDS011;8838;50.144;8.176;2022-07-29T07:59:43;7.43;;;2.50;;
17441;SDS011;8838;50.144;8.176;2022-07-29T08:02:10;5.13;;;2.33;;
17441;SDS011;8838;50.144;8.176;2022-07-29T08:04:37;8.23;;;2.40;;
17441;SDS011;8838;50.144;8.176;2022-07-29T08:07:06;6.65;;;2.67;;
17441;SDS011;8838;50.144;8.176;2022-07-29T08:09:34;7.30;;;2.58;;
17441;SDS011;8838;50.144;8.176;2022-07-29T08:12:02;5.82;;;2.60;;
17441;SDS011;8838;50.144;8.176;2022-07-29T08:14:32;7.45;;;2.63;;
17441;SDS011;8838;50.144;8.176;2022-07-29T08:16:59;4.90;;;2.30;;
17441;SDS011;8838;50.144;8.176;2022-07-29T08:19:26;6.30;;;2.58;;
17441;SDS011;8838;50.144;8.176;2022-07-29T08:21:53;3.67;;;2.22;;
17441;SDS011;8838;50.144;8.176;2022-07-29T08:24:20;7.18;;;2.50;;
17441;SDS011;8838;50.144;8.176;2022-07-29T08:27:05;3.78;;;2.20;;
17441;SDS011;8838;50.144;8.176;2022-07-29T08:29:33;5.07;;;2.83;;
17441;SDS011;8838;50.144;8.176;2022-07-29T08:32:03;4.95;;;2.53;;
17441;SDS011;8838;50.144;8.176;2022-07-29T08:34:30;5.65;;;2.58;;
17441;SDS011;8838;50.144;8.176;2022-07-29T08:36:57;5.63;;;2.60;;
17441;SDS011;8838;50.144;8.176;2022-07-29T08:39:24;7.82;;;2.80;;
17441;SDS011;8838;50.144;8.176;2022-07-29T08:41:52;6.57;;;2.55;;
17441;SDS011;8838;50.144;8.176;2022-07-29T08:44:19;5.80;;;2.80;;
17441;SDS011;8838;50.144;8.176;2022-07-29T08:46:48;6.07;;;3.00;;
17441;SDS011;8838;50.144;8.176;2022-07-29T08:49:15;4.20;;;2.42;;
17441;SDS011;8838;50.144;8.176;2022-07-29T08:51:42;7.38;;;2.50;;
17441;SDS011;8838;50.144;8.176;2022-07-29T08:54:11;8.45;;;3.25;;
17441;SDS011;8838;50.144;8.176;2022-07-29T08:56:44;7.03;;;3.00;;
17441;SDS011;8838;50.144;8.176;2022-07-29T08:59:14;5.30;;;2.65;;
17441;SDS011;8838;50.144;8.176;2022-07-29T09:01:41;5.45;;;2.90;;
17441;SDS011;8838;50.144;8.176;2022-07-29T09:04:11;5.90;;;2.60;;
17441;SDS011;8838;50.144;8.176;2022-07-29T09:06:42;6.65;;;2.72;;
17441;SDS011;8838;50.144;8.176;2022-07-29T09:09:10;8.88;;;2.53;;
17441;SDS011;8838;50.144;8.176;2022-07-29T09:11:38;4.60;;;2.70;;
17441;SDS011;8838;50.144;8.176;2022-07-29T09:14:06;5.18;;;2.55;;
17441;SDS011;8838;50.144;8.176;2022-07-29T09:16:50;6.88;;;2.65;;
17441;SDS011;8838;50.144;8.176;2022-07-29T09:19:24;5.75;;;2.65;;
17441;SDS011;8838;50.144;8.176;2022-07-29T09:21:53;6.90;;;2.42;;
17441;SDS011;8838;50.144;8.176;2022-07-29T09:24:25;6.30;;;2.72;;
17441;SDS011;8838;50.144;8.176;2022-07-29T09:26:53;4.65;;;2.70;;
17441;SDS011;8838;50.144;8.176;2022-07-29T09:29:21;12.90;;;7.88;;
17441;SDS011;8838;50.144;8.176;2022-07-29T09:31:51;8.05;;;2.70;;
17441;SDS011;8838;50.144;8.176;2022-07-29T09:34:21;5.93;;;2.40;;
17441;SDS011;8838;50.144;8.176;2022-07-29T09:36:51;7.07;;;2.83;;
17441;SDS011;8838;50.144;8.176;2022-07-29T09:39:27;7.20;;;2.78;;
17441;SDS011;8838;50.144;8.176;2022-07-29T09:41:55;7.53;;;2.90;;
17441;SDS011;8838;50.144;8.176;2022-07-29T09:44:23;4.55;;;2.67;;
17441;SDS011;8838;50.144;8.176;2022-07-29T09:46:54;5.85;;;2.90;;
17441;SDS011;8838;50.144;8.176;2022-07-29T09:49:24;5.15;;;2.63;;
17441;SDS011;8838;50.144;8.176;2022-07-29T09:52:04;5.47;;;2.88;;
17441;SDS011;8838;50.144;8.176;2022-07-29T09:54:32;6.00;;;2.40;;
17441;SDS011;8838;50.144;8.176;2022-07-29T09:57:03;8.27;;;2.78;;
17441;SDS011;8838;50.144;8.176;2022-07-29T09:59:30;6.70;;;2.60;;
17441;SDS011;8838;50.144;8.176;2022-07-29T10:01:57;5.55;;;2.65;;
17441;SDS011;8838;50.144;8.176;2022-07-29T10:04:37;5.57;;;2.55;;
17441;SDS011;8838;50.144;8.176;2022-07-29T10:07:04;5.38;;;2.95;;
17441;SDS011;8838;50.144;8.176;2022-07-29T10:09:32;6.28;;;2.72;;
17441;SDS011;8838;50.144;8.176;2022-07-29T10:12:04;4.65;;;2.65;;
17441;SDS011;8838;50.144;8.176;2022-07-29T10:14:34;6.10;;;2.70;;
17441;SDS011;8838;50.144;8.176;2022-07-29T10:17:02;5.72;;;2.78;;
17441;SDS011;8838;50.144;8.176;2022-07-29T10:19:31;3.60;;;2.65;;
17441;SDS011;8838;50.144;8.176;2022-07-29T10:22:01;4.43;;;2.40;;
17441;SDS011;8838;50.144;8.176;2022-07-29T10:24:30;6.97;;;2.58;;
17441;SDS011;8838;50.144;8.176;2022-07-29T10:26:58;5.32;;;2.70;;
17441;SDS011;8838;50.144;8.176;2022-07-29T10:29:26;5.07;;;2.70;;
17441;SDS011;8838;50.144;8.176;2022-07-29T10:31:58;8.35;;;2.42;;
17441;SDS011;8838;50.144;8.176;2022-07-29T10:34:53;6.90;;;3.00;;
17441;SDS011;8838;50.144;8.176;2022-07-29T10:37:33;5.30;;;2.65;;
17441;SDS011;8838;50.144;8.176;2022-07-29T10:40:15;5.43;;;2.70;;
17441;SDS011;8838;50.144;8.176;2022-07-29T10:43:16;4.10;;;2.60;;
17441;SDS011;8838;50.144;8.176;2022-07-29T10:45:45;5.30;;;2.67;;
17441;SDS011;8838;50.144;8.176;2022-07-29T10:48:14;4.30;;;2.80;;
17441;SDS011;8838;50.144;8.176;2022-07-29T10:50:54;3.60;;;2.60;;
17441;SDS011;8838;50.144;8.176;2022-07-29T10:53:28;5.38;;;3.00;;
17441;SDS011;8838;50.144;8.176;2022-07-29T10:56:22;4.28;;;2.63;;
17441;SDS011;8838;50.144;8.176;2022-07-29T11:01:53;3.35;;;2.30;;
17441;SDS011;8838;50.144;8.176;2022-07-29T11:07:25;5.05;;;2.70;;
17441;SDS011;8838;50.144;8.176;2022-07-29T11:12:50;4.82;;;2.90;;
17441;SDS011;8838;50.144;8.176;2022-07-29T11:15:18;5.80;;;2.75;;
17441;SDS011;8838;50.144;8.176;2022-07-29T11:20:40;5.32;;;2.90;;
17441;SDS011;8838;50.144;8.176;2022-07-29T11:23:22;4.03;;;2.67;;
17441;SDS011;8838;50.144;8.176;2022-07-29T11:28:52;5.95;;;2.55;;
17441;SDS011;8838;50.144;8.176;2022-07-29T11:31:37;4.50;;;2.67;;
17441;SDS011;8838;50.144;8.176;2022-07-29T11:34:15;5.45;;;2.58;;
17441;SDS011;8838;50.144;8.176;2022-07-29T11:40:14;8.10;;;3.70;;
17441;SDS011;8838;50.144;8.176;2022-07-29T11:42:49;4.63;;;2.70;;
17441;SDS011;8838;50.144;8.176;2022-07-29T11:45:20;4.15;;;2.90;;
17441;SDS011;8838;50.144;8.176;2022-07-29T11:47:52;3.92;;;2.78;;
17441;SDS011;8838;50.144;8.176;2022-07-29T11:50:27;5.28;;;2.67;;
17441;SDS011;8838;50.144;8.176;2022-07-29T11:52:57;7.45;;;3.00;;
17441;SDS011;8838;50.144;8.176;2022-07-29T11:55:24;6.28;;;2.95;;
17441;SDS011;8838;50.144;8.176;2022-07-29T11:57:53;4.18;;;3.00;;
17441;SDS011;8838;50.144;8.176;2022-07-29T12:00:24;4.90;;;2.80;;
17441;SDS011;8838;50.144;8.176;2022-07-29T12:02:53;8.50;;;2.90;;
17441;SDS011;8838;50.144;8.176;2022-07-29T12:05:25;5.65;;;2.63;;
17441;SDS011;8838;50.144;8.176;2022-07-29T12:08:05;3.28;;;2.90;;
17441;SDS011;8838;50.144;8.176;2022-07-29T12:10:33;3.40;;;2.88;;
17441;SDS011;8838;50.144;8.176;2022-07-29T12:13:01;4.78;;;2.50;;
17441;SDS011;8838;50.144;8.176;2022-07-29T12:15:28;3.70;;;2.60;;
17441;SDS011;8838;50.144;8.176;2022-07-29T12:17:56;4.75;;;2.83;;
17441;SDS011;8838;50.144;8.176;2022-07-29T12:20:23;3.97;;;2.75;;
17441;SDS011;8838;50.144;8.176;2022-07-29T12:22:52;6.10;;;2.90;;
17441;SDS011;8838;50.144;8.176;2022-07-29T12:25:20;6.47;;;2.83;;
17441;SDS011;8838;50.144;8.176;2022-07-29T12:27:47;16.88;;;12.98;;
17441;SDS011;8838;50.144;8.176;2022-07-29T12:30:33;8.13;;;2.85;;
17441;SDS011;8838;50.144;8.176;2022-07-29T12:33:09;21.73;;;5.72;;
17441;SDS011;8838;50.144;8.176;2022-07-29T12:35:37;16.20;;;6.05;;
17441;SDS011;8838;50.144;8.176;2022-07-29T12:38:05;19.17;;;6.15;;
17441;SDS011;8838;50.144;8.176;2022-07-29T12:40:32;13.38;;;6.25;;
17441;SDS011;8838;50.144;8.176;2022-07-29T12:43:06;11.45;;;4.60;;
17441;SDS011;8838;50.144;8.176;2022-07-29T12:45:39;9.73;;;3.85;;
17441;SDS011;8838;50.144;8.176;2022-07-29T12:48:07;18.13;;;5.93;;
17441;SDS011;8838;50.144;8.176;2022-07-29T12:50:36;8.45;;;4.28;;
17441;SDS011;8838;50.144;8.176;2022-07-29T12:53:17;12.18;;;4.50;;
17441;SDS011;8838;50.144;8.176;2022-07-29T12:55:45;17.58;;;6.47;;
17441;SDS011;8838;50.144;8.176;2022-07-29T12:58:25;15.30;;;6.47;;
17441;SDS011;8838;50.144;8.176;2022-07-29T13:01:06;15.27;;;6.50;;
17441;SDS011;8838;50.144;8.176;2022-07-29T13:03:44;12.57;;;6.57;;
17441;SDS011;8838;50.144;8.176;2022-07-29T13:06:27;22.33;;;8.27;;
17441;SDS011;8838;50.144;8.176;2022-07-29T13:08:59;22.58;;;7.78;;
17441;SDS011;8838;50.144;8.176;2022-07-29T13:11:28;12.07;;;6.60;;
17441;SDS011;8838;50.144;8.176;2022-07-29T13:13:57;15.25;;;8.25;;
17441;SDS011;8838;50.144;8.176;2022-07-29T13:16:26;15.63;;;8.13;;
17441;SDS011;8838;50.144;8.176;2022-07-29T13:19:03;14.93;;;8.02;;
17441;SDS011;8838;50.144;8.176;2022-07-29T13:21:31;21.08;;;9.05;;
17441;SDS011;8838;50.144;8.176;2022-07-29T13:23:58;15.43;;;8.45;;
17441;SDS011;8838;50.144;8.176;2022-07-29T13:26:25;16.60;;;8.65;;
17441;SDS011;8838;50.144;8.176;2022-07-29T13:28:52;10.10;;;6.72;;
17441;SDS011;8838;50.144;8.176;2022-07-29T13:31:19;26.10;;;10.85;;
17441;SDS011;8838;50.144;8.176;2022-07-29T13:33:48;20.50;;;10.18;;
17441;SDS011;8838;50.144;8.176;2022-07-29T13:36:15;19.15;;;9.75;;
17441;SDS011;8838;50.144;8.176;2022-07-29T13:38:42;16.30;;;10.10;;
17441;SDS011;8838;50.144;8.176;2022-07-29T13:41:09;16.02;;;11.02;;
17441;SDS011;8838;50.144;8.176;2022-07-29T13:43:36;19.35;;;13.45;;
17441;SDS011;8838;50.144;8.176;2022-07-29T13:46:03;19.80;;;14.35;;
17441;SDS011;8838;50.144;8.176;2022-07-29T13:48:29;17.90;;;10.98;;
17441;SDS011;8838;50.144;8.176;2022-07-29T13:50:58;17.70;;;9.23;;
17441;SDS011;8838;50.144;8.176;2022-07-29T13:53:24;36.88;;;24.70;;
17441;SDS011;8838;50.144;8.176;2022-07-29T13:55:53;15.15;;;8.23;;
17441;SDS011;8838;50.144;8.176;2022-07-29T13:58:20;15.52;;;9.63;;
17441;SDS011;8838;50.144;8.176;2022-07-29T14:00:47;12.35;;;8.23;;
17441;SDS011;8838;50.144;8.176;2022-07-29T14:03:14;14.32;;;9.05;;
17441;SDS011;8838;50.144;8.176;2022-07-29T14:05:41;14.45;;;9.95;;
17441;SDS011;8838;50.144;8.176;2022-07-29T14:08:09;15.90;;;10.75;;
17441;SDS011;8838;50.144;8.176;2022-07-29T14:10:36;10.63;;;8.40;;
17441;SDS011;8838;50.144;8.176;2022-07-29T14:13:03;12.75;;;8.50;;
17441;SDS011;8838;50.144;8.176;2022-07-29T14:15:29;13.43;;;7.57;;
17441;SDS011;8838;50.144;8.176;2022-07-29T14:17:56;8.95;;;6.03;;
17441;SDS011;8838;50.144;8.176;2022-07-29T14:20:23;10.27;;;6.78;;
17441;SDS011;8838;50.144;8.176;2022-07-29T14:22:50;10.65;;;6.47;;
17441;SDS011;8838;50.144;8.176;2022-07-29T14:25:18;8.15;;;5.63;;
17441;SDS011;8838;50.144;8.176;2022-07-29T14:27:45;11.23;;;6.20;;
17441;SDS011;8838;50.144;8.176;2022-07-29T14:30:12;9.80;;;5.47;;
17441;SDS011;8838;50.144;8.176;2022-07-29T14:32:40;7.30;;;5.47;;
17441;SDS011;8838;50.144;8.176;2022-07-29T14:35:07;7.93;;;5.72;;
17441;SDS011;8838;50.144;8.176;2022-07-29T14:37:34;9.95;;;5.32;;
17441;SDS011;8838;50.144;8.176;2022-07-29T14:40:01;9.38;;;5.72;;
17441;SDS011;8838;50.144;8.176;2022-07-29T14:42:30;7.22;;;5.32;;
17441;SDS011;8838;50.144;8.176;2022-07-29T14:44:57;6.90;;;4.72;;
17441;SDS011;8838;50.144;8.176;2022-07-29T14:47:24;6.07;;;5.40;;
17441;SDS011;8838;50.144;8.176;2022-07-29T14:49:51;11.07;;;6.05;;
17441;SDS011;8838;50.144;8.176;2022-07-29T14:52:18;8.05;;;5.40;;
17441;SDS011;8838;50.144;8.176;2022-07-29T14:54:45;7.65;;;5.25;;
17441;SDS011;8838;50.144;8.176;2022-07-29T14:57:12;8.65;;;5.35;;
17441;SDS011;8838;50.144;8.176;2022-07-29T14:59:40;7.70;;;5.32;;
17441;SDS011;8838;50.144;8.176;2022-07-29T15:02:07;7.10;;;4.50;;
17441;SDS011;8838;50.144;8.176;2022-07-29T15:04:34;5.40;;;4.90;;
17441;SDS011;8838;50.144;8.176;2022-07-29T15:07:01;8.00;;;5.18;;
17441;SDS011;8838;50.144;8.176;2022-07-29T15:09:29;8.60;;;5.03;;
17441;SDS011;8838;50.144;8.176;2022-07-29T15:11:56;6.80;;;5.28;;
17441;SDS011;8838;50.144;8.176;2022-07-29T15:14:22;7.75;;;4.80;;
17441;SDS011;8838;50.144;8.176;2022-07-29T15:16:51;6.18;;;5.28;;
17441;SDS011;8838;50.144;8.176;2022-07-29T15:19:18;7.07;;;5.68;;
17441;SDS011;8838;50.144;8.176;2022-07-29T15:21:45;9.48;;;5.45;;
17441;SDS011;8838;50.144;8.176;2022-07-29T15:24:12;6.63;;;5.70;;
17441;SDS011;8838;50.144;8.176;2022-07-29T15:26:39;9.55;;;5.47;;
17441;SDS011;8838;50.144;8.176;2022-07-29T15:29:07;7.82;;;5.22;;
17441;SDS011;8838;50.144;8.176;2022-07-29T15:31:34;5.90;;;4.80;;